Time;durP1;ratioP1;P1;durP2;ratioP2;P2;SDS_P1;SDS_P2;PMS_P1;PMS_P2;Temp;Humidity;BMP_temperature;BMP_pressure;BME280_temperature;BME280_humidity;BME280_pressure;Samples;Min_cycle;Max_cycle;Signal;HPM_P1;HPM_P2
2024/02/24 00:01:31;;;;;;;3.10;1.17;;;6.70;99.90;;;;;;5098666;28;20813;-80
2024/02/24 00:03:58;;;;;;;1.77;1.00;;;6.70;99.90;;;;;;5098785;28;20450;-82
2024/02/24 00:06:24;;;;;;;2.03;1.03;;;6.80;99.90;;;;;;5095943;28;20461;-82
2024/02/24 00:08:51;;;;;;;2.50;1.10;;;6.70;99.90;;;;;;5098387;28;20457;-81
2024/02/24 00:11:18;;;;;;;1.90;0.83;;;6.80;99.90;;;;;;5098701;28;20460;-82
2024/02/24 00:13:46;;;;;;;3.60;1.07;;;6.80;99.90;;;;;;5098756;28;20477;-82
2024/02/24 00:16:14;;;;;;;2.17;0.90;;;6.70;99.90;;;;;;5096894;28;20458;-81
2024/02/24 00:18:40;;;;;;;2.00;1.20;;;6.60;99.90;;;;;;5098390;28;20448;-80
2024/02/24 00:21:07;;;;;;;2.83;0.80;;;6.60;99.90;;;;;;5098003;28;20460;-81
2024/02/24 00:23:34;;;;;;;1.50;0.70;;;6.50;99.90;;;;;;5089199;28;20474;-81
2024/02/24 00:26:01;;;;;;;2.50;0.80;;;6.50;99.90;;;;;;5097221;28;20458;-82
2024/02/24 00:28:27;;;;;;;1.50;0.80;;;6.60;99.90;;;;;;5098824;28;20465;-82
2024/02/24 00:30:56;;;;;;;2.60;0.70;;;6.60;99.90;;;;;;5097676;28;21220;-80
2024/02/24 00:33:22;;;;;;;1.50;0.80;;;6.60;99.90;;;;;;5097229;28;20470;-82
2024/02/24 00:35:49;;;;;;;1.90;1.00;;;6.70;99.90;;;;;;5088052;28;21013;-82
2024/02/24 00:38:16;;;;;;;2.60;0.80;;;6.80;99.90;;;;;;5097422;28;20462;-81
2024/02/24 00:40:43;;;;;;;2.57;1.00;;;6.80;99.90;;;;;;5098093;28;20705;-80
2024/02/24 00:43:09;;;;;;;1.77;0.80;;;6.90;99.90;;;;;;5097970;28;20469;-82
2024/02/24 00:45:36;;;;;;;4.63;1.03;;;6.90;99.90;;;;;;5088276;28;20455;-80
2024/02/24 00:48:05;;;;;;;2.60;1.10;;;6.80;99.90;;;;;;5097252;28;20995;-81
2024/02/24 00:50:32;;;;;;;2.17;1.10;;;6.70;99.90;;;;;;5097441;28;20461;-81
2024/02/24 00:52:59;;;;;;;2.27;0.80;;;6.70;99.90;;;;;;5097313;28;20459;-80
2024/02/24 00:55:26;;;;;;;2.00;0.93;;;6.60;99.90;;;;;;5089173;28;20487;-82
2024/02/24 00:57:53;;;;;;;4.30;1.00;;;6.50;99.90;;;;;;5096452;28;20542;-79
2024/02/24 01:00:20;;;;;;;3.40;1.17;;;6.50;99.90;;;;;;5097804;28;20486;-82
2024/02/24 01:02:47;;;;;;;2.27;1.20;;;6.40;99.90;;;;;;5097717;28;20528;-80
2024/02/24 01:05:15;;;;;;;2.00;1.00;;;6.40;99.90;;;;;;5089207;28;20804;-81
2024/02/24 01:07:42;;;;;;;2.73;1.00;;;6.30;99.90;;;;;;5096623;28;20445;-81
2024/02/24 01:10:10;;;;;;;24.43;6.10;;;6.30;99.90;;;;;;5097814;28;20456;-81
2024/02/24 01:12:37;;;;;;;3.90;1.73;;;6.10;99.90;;;;;;5097036;28;20480;-81
2024/02/24 01:15:05;;;;;;;1.80;0.90;;;6.00;99.90;;;;;;5090867;28;20529;-80
2024/02/24 01:17:32;;;;;;;1.60;0.87;;;6.00;99.90;;;;;;5094482;28;20454;-82
2024/02/24 01:19:59;;;;;;;2.47;1.10;;;5.90;99.90;;;;;;5092771;28;20837;-81
2024/02/24 01:22:27;;;;;;;3.43;1.20;;;5.80;99.90;;;;;;5097496;28;20551;-81
2024/02/24 01:24:55;;;;;;;1.70;0.83;;;5.70;99.90;;;;;;5092514;28;20459;-80
2024/02/24 01:27:22;;;;;;;1.70;0.87;;;5.60;99.90;;;;;;5095410;28;20505;-80
2024/02/24 01:29:48;;;;;;;2.70;1.23;;;5.70;99.90;;;;;;5096702;28;20448;-82
2024/02/24 01:32:15;;;;;;;2.43;0.97;;;5.70;99.90;;;;;;5096404;28;20480;-81
2024/02/24 01:34:42;;;;;;;4.53;1.10;;;5.80;99.90;;;;;;5095637;28;21008;-80
2024/02/24 01:37:09;;;;;;;2.13;0.87;;;6.00;99.90;;;;;;5094689;28;20466;-80
2024/02/24 01:39:37;;;;;;;1.77;1.00;;;6.10;99.90;;;;;;5095705;28;20445;-82
2024/02/24 01:42:04;;;;;;;2.27;0.90;;;6.20;99.90;;;;;;5096933;28;20485;-81
2024/02/24 01:44:31;;;;;;;2.40;1.20;;;6.30;99.90;;;;;;5094272;28;20450;-81
2024/02/24 01:46:58;;;;;;;1.50;0.83;;;6.40;99.90;;;;;;5091145;28;20553;-81
2024/02/24 01:49:25;;;;;;;2.53;1.00;;;6.40;99.90;;;;;;5096622;28;20945;-81
2024/02/24 01:51:52;;;;;;;1.90;1.20;;;6.50;99.90;;;;;;5096716;28;20470;-80
2024/02/24 01:54:19;;;;;;;1.63;0.90;;;6.50;99.90;;;;;;5096676;28;20833;-83
2024/02/24 01:56:47;;;;;;;2.80;1.00;;;6.50;99.90;;;;;;5089620;28;20437;-82
2024/02/24 01:59:15;;;;;;;4.77;0.80;;;6.60;99.90;;;;;;5096038;28;20539;-82
2024/02/24 02:01:42;;;;;;;2.43;1.00;;;6.70;99.90;;;;;;5096219;28;20965;-83
2024/02/24 02:04:09;;;;;;;2.50;0.87;;;6.50;99.90;;;;;;5088676;28;20451;-81
2024/02/24 02:06:37;;;;;;;1.77;0.90;;;6.40;99.90;;;;;;5089155;28;20497;-82
2024/02/24 02:09:04;;;;;;;3.27;1.00;;;6.30;99.90;;;;;;5092734;28;20442;-81
2024/02/24 02:11:30;;;;;;;3.00;1.00;;;6.10;99.90;;;;;;5096313;28;20455;-81
2024/02/24 02:13:59;;;;;;;2.97;0.83;;;6.10;99.90;;;;;;5096589;28;20517;-82
2024/02/24 02:16:26;;;;;;;2.43;1.10;;;6.00;99.90;;;;;;5089853;28;20493;-82
2024/02/24 02:18:52;;;;;;;1.70;1.03;;;5.90;99.90;;;;;;5096381;28;20488;-81
2024/02/24 02:21:21;;;;;;;2.97;1.23;;;5.70;99.90;;;;;;5096360;28;20454;-81
2024/02/24 02:23:50;;;;;;;2.83;1.13;;;5.60;99.90;;;;;;5095599;28;20563;-82
2024/02/24 02:26:18;;;;;;;3.17;1.17;;;5.60;99.90;;;;;;5093852;28;20449;-82
2024/02/24 02:28:44;;;;;;;1.63;0.90;;;5.60;99.90;;;;;;5096412;28;20515;-81
2024/02/24 02:31:11;;;;;;;2.07;0.90;;;5.60;99.90;;;;;;5095356;28;20453;-82
2024/02/24 02:33:38;;;;;;;2.23;0.90;;;5.30;99.90;;;;;;5094343;28;20877;-81
2024/02/24 02:36:06;;;;;;;1.60;0.80;;;5.50;99.90;;;;;;5089377;28;20573;-82
2024/02/24 02:38:33;;;;;;;2.00;1.00;;;5.50;99.90;;;;;;5090701;28;20441;-82
2024/02/24 02:41:02;;;;;;;2.63;1.07;;;5.50;99.90;;;;;;5095998;28;20454;-82
2024/02/24 02:43:29;;;;;;;1.67;1.00;;;5.50;99.90;;;;;;5095368;28;20485;-81
2024/02/24 02:45:56;;;;;;;3.80;1.30;;;5.50;99.90;;;;;;5090468;28;20458;-82
2024/02/24 02:48:23;;;;;;;3.93;1.13;;;5.60;99.90;;;;;;5095762;28;20532;-82
2024/02/24 02:50:49;;;;;;;1.67;1.00;;;5.70;99.90;;;;;;5094890;28;20848;-84
2024/02/24 02:53:16;;;;;;;4.63;1.23;;;5.40;99.90;;;;;;5096248;28;20476;-81
2024/02/24 02:55:43;;;;;;;1.57;0.73;;;5.80;99.90;;;;;;5089597;28;20507;-82
2024/02/24 02:58:11;;;;;;;1.87;0.77;;;5.80;99.90;;;;;;5094895;28;20513;-83
2024/02/24 03:00:38;;;;;;;1.40;0.80;;;5.80;99.90;;;;;;5095538;28;20514;-81
2024/02/24 03:03:05;;;;;;;2.03;0.80;;;5.70;99.90;;;;;;5095705;28;20569;-81
2024/02/24 03:05:32;;;;;;;2.90;1.00;;;5.70;99.90;;;;;;5090799;28;20446;-84
2024/02/24 03:07:59;;;;;;;3.77;0.80;;;5.60;99.90;;;;;;5091228;28;20469;-82
2024/02/24 03:10:26;;;;;;;1.40;0.80;;;5.60;99.90;;;;;;5095061;28;20556;-84
2024/02/24 03:12:53;;;;;;;2.27;0.90;;;5.60;99.90;;;;;;5094992;28;20505;-83
2024/02/24 03:15:21;;;;;;;7.60;0.90;;;5.70;99.90;;;;;;5090489;28;20503;-81
2024/02/24 03:17:48;;;;;;;1.60;0.80;;;5.80;99.90;;;;;;5094310;28;20541;-82
2024/02/24 03:20:14;;;;;;;1.43;0.80;;;5.80;99.90;;;;;;5095083;28;20468;-82
2024/02/24 03:22:41;;;;;;;1.40;0.70;;;5.90;99.90;;;;;;5095197;28;20836;-82
2024/02/24 03:25:09;;;;;;;2.33;1.00;;;6.00;99.90;;;;;;5090788;28;20460;-83
2024/02/24 03:27:36;;;;;;;1.50;0.93;;;6.10;99.90;;;;;;5094854;28;20450;-83
2024/02/24 03:30:03;;;;;;;5.20;1.10;;;6.10;99.90;;;;;;5095092;28;20450;-83
2024/02/24 03:32:31;;;;;;;1.80;0.80;;;6.20;99.90;;;;;;5095424;28;20501;-81
2024/02/24 03:34:58;;;;;;;1.93;0.80;;;6.20;99.90;;;;;;5091400;28;20872;-81
2024/02/24 03:37:25;;;;;;;1.60;0.90;;;6.20;99.90;;;;;;5089513;28;20472;-83
2024/02/24 03:39:52;;;;;;;1.80;0.70;;;6.30;99.90;;;;;;5096197;28;20446;-81
2024/02/24 03:42:18;;;;;;;3.90;1.00;;;6.30;99.90;;;;;;5094895;28;20478;-81
2024/02/24 03:44:45;;;;;;;1.40;0.70;;;6.30;99.90;;;;;;5091173;28;20457;-82
2024/02/24 03:47:12;;;;;;;1.70;0.80;;;6.40;99.90;;;;;;5093687;28;20464;-81
2024/02/24 03:49:41;;;;;;;1.40;0.70;;;6.40;99.90;;;;;;5096048;28;20526;-81
2024/02/24 03:52:08;;;;;;;1.50;0.70;;;6.40;99.90;;;;;;5094647;28;20473;-82
2024/02/24 03:54:35;;;;;;;1.40;0.70;;;6.20;99.90;;;;;;5091690;28;20963;-82
2024/02/24 03:57:02;;;;;;;1.40;0.80;;;6.20;99.90;;;;;;5093740;28;20503;-82
2024/02/24 03:59:28;;;;;;;1.50;1.07;;;6.20;99.90;;;;;;5094019;28;20460;-79
2024/02/24 04:01:55;;;;;;;2.17;0.80;;;6.00;99.90;;;;;;5087059;28;20514;-80
2024/02/24 04:04:22;;;;;;;1.70;1.00;;;5.90;99.90;;;;;;5089304;28;20461;-83
2024/02/24 04:06:50;;;;;;;1.67;0.70;;;5.90;99.90;;;;;;5093233;28;20946;-81
2024/02/24 04:09:17;;;;;;;2.33;1.10;;;5.90;99.90;;;;;;5094942;28;20450;-80
2024/02/24 04:11:44;;;;;;;1.30;0.60;;;5.60;99.90;;;;;;5097107;28;20476;-79
2024/02/24 04:14:11;;;;;;;2.07;0.93;;;5.90;99.90;;;;;;5097178;28;20569;-81
2024/02/24 04:16:37;;;;;;;1.93;0.80;;;5.80;99.90;;;;;;5089740;28;20762;-81
2024/02/24 04:19:04;;;;;;;2.37;0.80;;;5.80;99.90;;;;;;5091303;28;20482;-83
2024/02/24 04:21:31;;;;;;;2.53;0.70;;;5.80;99.90;;;;;;5096882;28;20454;-82
2024/02/24 04:23:59;;;;;;;1.57;0.70;;;5.80;99.90;;;;;;5096401;28;20468;-83
2024/02/24 04:26:26;;;;;;;1.63;0.90;;;5.80;99.90;;;;;;5097647;28;21240;-80
2024/02/24 04:28:53;;;;;;;1.40;0.70;;;5.90;99.90;;;;;;5098926;28;20852;-83
2024/02/24 04:31:19;;;;;;;3.43;0.87;;;5.90;99.90;;;;;;5096797;28;20450;-82
2024/02/24 04:33:46;;;;;;;1.67;0.93;;;6.10;99.90;;;;;;5097791;28;20476;-82
2024/02/24 04:36:13;;;;;;;1.40;0.60;;;6.10;99.90;;;;;;5095589;28;20499;-82
2024/02/24 04:38:40;;;;;;;2.10;0.77;;;6.10;99.90;;;;;;5092907;28;20465;-82
2024/02/24 04:41:08;;;;;;;1.43;0.70;;;6.20;99.90;;;;;;5097441;28;20464;-82
2024/02/24 04:43:35;;;;;;;1.57;0.70;;;6.20;99.90;;;;;;5088918;28;20473;-83
2024/02/24 04:46:01;;;;;;;1.57;1.10;;;6.40;99.90;;;;;;5094540;28;20458;-83
2024/02/24 04:48:28;;;;;;;1.60;0.60;;;6.40;99.90;;;;;;5097181;28;20541;-82
2024/02/24 04:50:55;;;;;;;1.30;0.70;;;6.40;99.90;;;;;;5089638;28;21033;-82
2024/02/24 04:53:22;;;;;;;1.50;0.70;;;6.40;99.90;;;;;;5097280;28;20466;-81
2024/02/24 04:55:49;;;;;;;1.70;0.70;;;6.30;99.90;;;;;;5094746;28;20493;-82
2024/02/24 04:58:17;;;;;;;1.30;0.60;;;6.40;99.90;;;;;;5097096;28;20893;-81
2024/02/24 05:00:45;;;;;;;3.37;0.80;;;6.40;99.90;;;;;;5096818;28;20461;-79
2024/02/24 05:03:12;;;;;;;1.50;0.80;;;6.40;99.90;;;;;;5097002;28;20551;-80
2024/02/24 05:05:41;;;;;;;1.50;0.80;;;6.50;99.90;;;;;;5096412;28;20949;-81
2024/02/24 05:08:07;;;;;;;1.70;0.90;;;6.30;99.90;;;;;;5092996;28;20500;-81
2024/02/24 05:10:34;;;;;;;1.93;0.90;;;6.40;99.90;;;;;;5096986;28;20458;-82
2024/02/24 05:13:01;;;;;;;1.40;0.80;;;6.40;99.90;;;;;;5097424;28;20470;-80
2024/02/24 05:15:29;;;;;;;1.77;0.60;;;6.40;99.90;;;;;;5097747;28;20492;-81
2024/02/24 05:17:56;;;;;;;1.70;0.60;;;6.50;99.90;;;;;;5098550;28;20536;-84
2024/02/24 05:20:23;;;;;;;1.67;0.70;;;6.50;99.90;;;;;;5097611;28;20986;-83
2024/02/24 05:22:50;;;;;;;1.50;0.80;;;6.50;99.90;;;;;;5092758;28;20470;-83
2024/02/24 05:25:17;;;;;;;1.70;0.70;;;6.40;99.90;;;;;;5098364;28;20900;-82
2024/02/24 05:27:44;;;;;;;1.50;0.70;;;6.50;99.90;;;;;;5098501;28;20837;-82
2024/02/24 05:30:11;;;;;;;1.40;0.80;;;6.50;99.90;;;;;;5101090;28;20453;-83
2024/02/24 05:32:39;;;;;;;2.23;0.70;;;6.50;99.90;;;;;;5099878;28;20537;-83
2024/02/24 05:35:07;;;;;;;2.30;0.70;;;6.50;99.90;;;;;;5101691;28;20586;-83
2024/02/24 05:37:33;;;;;;;1.40;0.70;;;6.40;99.90;;;;;;5087414;28;20956;-82
2024/02/24 05:40:00;;;;;;;1.57;0.70;;;6.30;99.90;;;;;;5100058;28;20540;-82
2024/02/24 05:42:27;;;;;;;1.40;0.80;;;6.40;99.90;;;;;;5098520;28;20541;-84
2024/02/24 05:44:54;;;;;;;4.23;0.80;;;6.20;99.90;;;;;;5098754;28;20465;-82
2024/02/24 05:47:21;;;;;;;1.40;0.70;;;6.20;99.90;;;;;;5098389;28;20458;-83
2024/02/24 05:49:49;;;;;;;1.40;0.80;;;6.20;99.90;;;;;;5099061;28;20493;-82
2024/02/24 05:52:18;;;;;;;2.90;0.90;;;6.20;99.90;;;;;;5097623;28;20484;-79
2024/02/24 05:54:45;;;;;;;1.30;0.60;;;6.30;99.90;;;;;;5088390;28;20469;-82
2024/02/24 05:57:12;;;;;;;1.40;0.70;;;6.30;99.90;;;;;;5098053;28;20490;-83
2024/02/24 05:59:38;;;;;;;4.73;0.90;;;6.30;99.90;;;;;;5098653;28;20530;-82
2024/02/24 06:02:05;;;;;;;1.80;0.90;;;6.30;99.90;;;;;;5098034;28;20469;-80
2024/02/24 06:04:32;;;;;;;1.70;0.90;;;6.40;99.90;;;;;;5103116;28;20487;-80
2024/02/24 06:07:00;;;;;;;2.37;0.80;;;6.40;99.90;;;;;;5102660;28;20458;-83
2024/02/24 06:09:27;;;;;;;1.30;0.60;;;6.60;99.90;;;;;;5095580;28;20461;-83
2024/02/24 06:11:54;;;;;;;1.70;0.80;;;6.40;99.90;;;;;;5097624;28;20565;-83
2024/02/24 06:14:21;;;;;;;1.70;0.70;;;6.40;99.90;;;;;;5096220;28;20457;-82
2024/02/24 06:16:47;;;;;;;2.43;0.70;;;6.50;99.90;;;;;;5096948;28;20485;-81
2024/02/24 06:19:14;;;;;;;1.50;0.70;;;6.50;99.90;;;;;;5098039;28;20453;-84
2024/02/24 06:21:41;;;;;;;1.60;0.90;;;6.60;99.90;;;;;;5093678;28;20523;-83
2024/02/24 06:24:10;;;;;;;2.60;1.00;;;6.60;99.90;;;;;;5093260;28;20442;-83
2024/02/24 06:26:36;;;;;;;1.57;0.70;;;6.70;99.90;;;;;;5096009;28;20515;-80
2024/02/24 06:29:03;;;;;;;1.40;0.70;;;6.90;99.90;;;;;;5098114;28;20496;-82
2024/02/24 06:31:30;;;;;;;1.80;0.60;;;7.60;99.90;;;;;;5096364;28;21058;-83
2024/02/24 06:33:57;;;;;;;1.57;0.97;;;6.80;99.90;;;;;;5097372;28;20871;-82
2024/02/24 06:36:25;;;;;;;1.53;0.77;;;6.70;99.90;;;;;;5095320;28;20484;-80
2024/02/24 06:38:51;;;;;;;1.30;0.60;;;6.70;99.90;;;;;;5088493;28;20894;-78
2024/02/24 06:41:23;;;;;;;1.50;0.93;;;6.70;99.90;;;;;;5093853;28;20562;-78
2024/02/24 06:43:49;;;;;;;1.50;0.70;;;6.60;99.90;;;;;;5094763;28;20493;-78
2024/02/24 06:46:16;;;;;;;2.13;0.83;;;6.60;99.90;;;;;;5094136;28;20474;-79
2024/02/24 06:48:44;;;;;;;2.60;0.80;;;6.60;99.90;;;;;;5094717;28;20513;-80
2024/02/24 06:51:12;;;;;;;1.40;0.70;;;6.70;99.90;;;;;;5094321;28;20539;-81
2024/02/24 06:53:38;;;;;;;1.40;0.70;;;6.70;99.90;;;;;;5092161;28;20501;-80
2024/02/24 06:56:06;;;;;;;1.90;0.70;;;6.80;99.90;;;;;;5084796;28;20497;-80
2024/02/24 06:58:36;;;;;;;1.37;0.70;;;6.80;99.90;;;;;;5083891;28;20442;-80
2024/02/24 07:01:03;;;;;;;2.60;0.77;;;6.90;99.90;;;;;;5086395;28;20447;-81
2024/02/24 07:03:32;;;;;;;2.20;0.90;;;6.90;99.90;;;;;;5088673;28;20469;-80
2024/02/24 07:05:59;;;;;;;4.13;0.90;;;6.90;99.90;;;;;;5086564;28;20465;-81
2024/02/24 07:08:26;;;;;;;2.30;0.93;;;6.90;99.90;;;;;;5087915;28;20442;-81
2024/02/24 07:10:53;;;;;;;1.50;0.83;;;6.90;99.90;;;;;;5083282;28;20450;-79
2024/02/24 07:13:20;;;;;;;2.47;1.17;;;6.90;99.90;;;;;;5088687;28;20748;-82
2024/02/24 07:15:48;;;;;;;2.40;1.10;;;7.00;99.90;;;;;;5085476;28;20873;-82
2024/02/24 07:18:15;;;;;;;1.77;0.93;;;7.00;99.90;;;;;;5082810;28;20454;-81
2024/02/24 07:20:41;;;;;;;1.90;0.90;;;7.00;99.90;;;;;;5088696;28;20453;-80
2024/02/24 07:23:08;;;;;;;1.43;0.70;;;7.10;99.90;;;;;;5084606;28;20471;-82
2024/02/24 07:25:35;;;;;;;2.97;0.90;;;7.20;99.90;;;;;;5087306;28;20453;-78
2024/02/24 07:28:02;;;;;;;1.70;1.00;;;7.20;99.90;;;;;;5085342;28;20439;-80
2024/02/24 07:30:28;;;;;;;3.20;0.70;;;7.20;99.90;;;;;;5089453;28;21033;-79
2024/02/24 07:32:57;;;;;;;1.80;1.07;;;7.20;99.90;;;;;;5088106;28;20470;-79
2024/02/24 07:35:23;;;;;;;4.10;1.13;;;7.10;99.90;;;;;;5087392;28;20462;-80
2024/02/24 07:37:50;;;;;;;1.87;0.70;;;7.10;99.90;;;;;;5087358;28;20487;-80
2024/02/24 07:40:17;;;;;;;1.70;1.00;;;7.10;99.90;;;;;;5083319;28;20474;-82
2024/02/24 07:42:44;;;;;;;1.63;0.90;;;7.10;99.90;;;;;;5088659;28;20475;-81
2024/02/24 07:45:11;;;;;;;1.40;0.80;;;7.10;99.90;;;;;;5088353;28;20484;-83
2024/02/24 07:47:38;;;;;;;1.90;1.00;;;7.10;99.90;;;;;;5094289;28;20530;-82
2024/02/24 07:50:08;;;;;;;1.40;0.80;;;7.20;99.90;;;;;;5098391;28;20446;-82
2024/02/24 07:52:35;;;;;;;1.80;0.80;;;7.30;99.90;;;;;;5089818;28;20471;-82
2024/02/24 07:55:02;;;;;;;2.70;0.90;;;7.40;99.90;;;;;;5097983;28;20983;-81
2024/02/24 07:57:29;;;;;;;1.60;0.80;;;7.40;99.90;;;;;;5092056;28;20494;-83
2024/02/24 07:59:56;;;;;;;1.50;0.70;;;7.40;99.90;;;;;;5092801;28;20443;-82
2024/02/24 08:02:22;;;;;;;1.90;0.90;;;7.50;99.90;;;;;;5099525;28;20472;-82
2024/02/24 08:04:49;;;;;;;1.60;1.00;;;7.50;99.90;;;;;;5110786;28;20454;-82
2024/02/24 08:07:17;;;;;;;1.80;0.97;;;7.60;99.90;;;;;;5091816;28;20456;-80
2024/02/24 08:09:44;;;;;;;1.90;0.93;;;7.60;99.90;;;;;;5094499;28;20517;-82
2024/02/24 08:12:11;;;;;;;4.00;1.20;;;7.60;99.90;;;;;;5089769;28;20674;-82
2024/02/24 08:14:38;;;;;;;1.47;0.87;;;7.60;99.90;;;;;;5093581;28;20534;-82
2024/02/24 08:17:05;;;;;;;1.73;1.00;;;7.60;99.90;;;;;;5093812;28;20493;-78
2024/02/24 08:19:33;;;;;;;1.80;1.00;;;7.60;99.90;;;;;;5100400;28;20551;-82
2024/02/24 08:22:00;;;;;;;1.70;1.00;;;7.70;99.90;;;;;;5086201;28;20476;-80
2024/02/24 08:24:28;;;;;;;2.37;1.00;;;7.80;99.90;;;;;;5082639;28;20462;-81
2024/02/24 08:26:55;;;;;;;3.30;0.90;;;7.80;99.90;;;;;;5097571;28;20458;-81
2024/02/24 08:29:22;;;;;;;2.30;1.07;;;7.80;99.90;;;;;;5098294;28;20511;-82
2024/02/24 08:31:49;;;;;;;2.70;0.90;;;7.90;99.90;;;;;;5098256;28;20451;-84
2024/02/24 08:34:16;;;;;;;2.07;1.00;;;8.00;99.90;;;;;;5101512;28;20447;-80
2024/02/24 08:36:43;;;;;;;2.00;1.27;;;8.20;99.90;;;;;;5090579;28;20488;-82
2024/02/24 08:39:10;;;;;;;2.00;1.10;;;8.20;99.90;;;;;;5098651;28;20454;-81
2024/02/24 08:41:38;;;;;;;1.53;0.90;;;8.30;99.90;;;;;;5098060;28;20467;-84
2024/02/24 08:44:05;;;;;;;1.60;1.00;;;8.40;99.90;;;;;;5098202;28;20454;-82
2024/02/24 08:46:32;;;;;;;1.70;0.90;;;8.40;99.90;;;;;;5093243;28;20467;-82
2024/02/24 08:48:59;;;;;;;2.80;0.93;;;8.30;99.90;;;;;;5098504;28;21038;-84
2024/02/24 08:51:27;;;;;;;3.67;1.07;;;8.30;99.90;;;;;;5097859;28;20466;-82
2024/02/24 08:53:54;;;;;;;2.03;0.90;;;8.30;99.90;;;;;;5098144;28;21009;-83
2024/02/24 08:56:21;;;;;;;2.43;0.90;;;8.40;99.90;;;;;;5092411;28;20468;-82
2024/02/24 08:58:50;;;;;;;1.73;0.70;;;8.30;99.90;;;;;;5098419;28;20487;-83
2024/02/24 09:01:18;;;;;;;1.70;0.87;;;8.20;99.90;;;;;;5097659;28;20541;-82
2024/02/24 09:03:45;;;;;;;2.60;1.00;;;8.00;99.90;;;;;;5098986;28;20507;-82
2024/02/24 09:06:12;;;;;;;1.80;1.17;;;8.10;99.90;;;;;;5093568;28;20543;-82
2024/02/24 09:08:38;;;;;;;1.67;1.10;;;8.20;99.90;;;;;;5096463;28;20448;-83
2024/02/24 09:11:05;;;;;;;2.00;0.83;;;8.30;99.90;;;;;;5098093;28;20470;-82
2024/02/24 09:13:32;;;;;;;2.00;1.00;;;8.30;99.90;;;;;;5087226;28;20489;-82
2024/02/24 09:16:01;;;;;;;2.20;1.13;;;8.30;99.90;;;;;;5084311;28;20483;-83
2024/02/24 09:18:28;;;;;;;2.57;0.97;;;8.20;99.90;;;;;;5098804;28;20490;-82
2024/02/24 09:20:54;;;;;;;2.00;0.73;;;8.00;99.90;;;;;;5098648;28;20557;-84
2024/02/24 09:23:21;;;;;;;3.80;0.90;;;7.80;99.90;;;;;;5079705;28;20562;-83
2024/02/24 09:25:48;;;;;;;1.70;0.80;;;7.60;99.90;;;;;;5082673;28;20458;-84
2024/02/24 09:28:15;;;;;;;1.93;0.93;;;7.60;99.90;;;;;;5098312;28;20531;-84
2024/02/24 09:30:42;;;;;;;1.50;0.80;;;7.30;99.90;;;;;;5100541;28;20459;-84
2024/02/24 09:33:10;;;;;;;1.87;0.80;;;7.20;99.90;;;;;;5099730;28;20997;-83
2024/02/24 09:35:37;;;;;;;1.50;0.90;;;7.20;99.90;;;;;;5099435;28;20453;-81
2024/02/24 09:38:03;;;;;;;1.40;0.90;;;7.30;99.90;;;;;;5109242;28;20559;-82
2024/02/24 09:40:30;;;;;;;2.27;0.73;;;7.20;99.90;;;;;;5112854;28;20458;-84
2024/02/24 09:43:04;;;;;;;1.70;0.90;;;7.10;99.90;;;;;;5103372;28;20515;-83
2024/02/24 09:45:35;;;;;;;1.43;0.87;;;7.00;99.90;;;;;;5087504;28;20454;-85
2024/02/24 09:48:02;;;;;;;1.93;1.20;;;7.10;99.90;;;;;;5088377;28;20904;-84
2024/02/24 09:50:31;;;;;;;1.60;1.00;;;7.00;99.90;;;;;;5088256;28;20863;-82
2024/02/24 09:52:58;;;;;;;3.00;0.87;;;6.90;99.90;;;;;;5096036;28;20477;-83
2024/02/24 09:55:25;;;;;;;3.13;1.20;;;6.70;99.90;;;;;;5088034;28;20457;-82
2024/02/24 09:57:56;;;;;;;1.90;1.00;;;6.50;99.90;;;;;;5094918;28;20489;-82
2024/02/24 10:00:23;;;;;;;2.23;1.20;;;6.30;99.90;;;;;;5088583;28;20541;-82
2024/02/24 10:02:49;;;;;;;1.80;1.03;;;6.30;99.90;;;;;;5087883;28;20474;-83
2024/02/24 10:05:17;;;;;;;3.60;1.33;;;6.30;99.90;;;;;;5085795;28;20528;-82
2024/02/24 10:07:46;;;;;;;2.00;1.10;;;6.50;99.90;;;;;;5081464;28;20442;-82
2024/02/24 10:10:16;;;;;;;1.50;0.80;;;6.70;99.90;;;;;;5081821;28;20461;-82
2024/02/24 10:12:56;;;;;;;1.60;0.80;;;6.70;99.90;;;;;;5083610;28;20845;-82
2024/02/24 10:15:23;;;;;;;1.60;1.10;;;6.80;99.90;;;;;;5082473;28;20454;-82
2024/02/24 10:17:50;;;;;;;1.50;0.90;;;6.80;99.90;;;;;;5085995;28;20543;-84
2024/02/24 10:20:20;;;;;;;1.67;0.80;;;7.00;99.90;;;;;;5081736;28;20446;-82
2024/02/24 10:22:48;;;;;;;1.77;0.90;;;7.20;99.90;;;;;;5089098;28;20485;-84
2024/02/24 10:25:15;;;;;;;1.50;0.80;;;7.50;99.90;;;;;;5085192;28;20937;-84
2024/02/24 10:27:44;;;;;;;2.03;1.00;;;7.60;99.90;;;;;;5085827;28;20554;-83
2024/02/24 10:30:11;;;;;;;2.00;1.20;;;8.00;99.90;;;;;;5084857;28;20530;-82
2024/02/24 10:32:39;;;;;;;2.23;1.30;;;8.40;99.90;;;;;;5082320;28;20558;-84
2024/02/24 10:35:07;;;;;;;1.80;0.80;;;9.40;99.90;;;;;;5083318;28;20540;-83
2024/02/24 10:37:35;;;;;;;2.50;0.93;;;9.40;99.90;;;;;;5088172;28;20488;-84
2024/02/24 10:40:05;;;;;;;1.60;0.73;;;9.70;99.90;;;;;;5086658;28;20983;-82
2024/02/24 10:42:32;;;;;;;1.50;0.77;;;10.30;99.90;;;;;;5087593;28;20861;-82
2024/02/24 10:44:59;;;;;;;1.70;0.87;;;10.70;99.90;;;;;;5087810;28;20830;-84
2024/02/24 10:47:26;;;;;;;2.33;0.70;;;10.20;99.90;;;;;;5089366;28;20517;-84
2024/02/24 10:49:53;;;;;;;1.77;0.90;;;10.00;99.90;;;;;;5090763;28;20512;-84
2024/02/24 10:52:21;;;;;;;1.70;0.93;;;9.40;99.90;;;;;;5091156;28;20478;-81
2024/02/24 10:54:51;;;;;;;4.57;1.00;;;9.80;99.90;;;;;;5088462;28;20532;-84
2024/02/24 10:57:20;;;;;;;1.80;0.80;;;9.80;99.90;;;;;;5086807;28;20486;-82
2024/02/24 10:59:48;;;;;;;3.00;0.87;;;9.80;99.90;;;;;;5087214;28;20983;-83
2024/02/24 11:02:15;;;;;;;1.60;0.80;;;10.00;99.90;;;;;;5095327;28;20501;-83
2024/02/24 11:04:42;;;;;;;1.60;1.10;;;10.00;99.90;;;;;;5090533;28;20481;-82
2024/02/24 11:07:17;;;;;;;2.93;1.00;;;9.50;99.90;;;;;;5085391;28;20483;-82
2024/02/24 11:09:47;;;;;;;1.80;1.07;;;9.60;99.90;;;;;;5079389;28;20919;-82
2024/02/24 11:12:16;;;;;;;2.07;0.90;;;9.40;99.90;;;;;;5086541;28;20882;-81
2024/02/24 11:14:48;;;;;;;2.37;0.70;;;10.60;99.90;;;;;;5089109;28;20484;-83
2024/02/24 11:17:48;;;;;;;2.47;1.13;;;12.60;99.90;;;;;;5100960;28;20484;-83
2024/02/24 11:20:53;;;;;;;3.27;1.53;;;12.80;99.90;;;;;;5105174;28;20458;-81
2024/02/24 11:23:21;;;;;;;2.47;0.83;;;11.90;99.90;;;;;;5103534;28;20473;-83
2024/02/24 11:25:48;;;;;;;3.00;0.73;;;10.50;99.90;;;;;;5099705;28;20540;-79
2024/02/24 11:28:21;;;;;;;2.20;0.60;;;10.00;99.90;;;;;;5102731;28;20533;-82
2024/02/24 11:30:51;;;;;;;2.20;1.03;;;9.90;99.90;;;;;;5096364;28;20564;-81
2024/02/24 11:33:22;;;;;;;1.97;0.90;;;9.70;99.90;;;;;;5100094;28;20468;-83
2024/02/24 11:35:51;;;;;;;1.70;0.70;;;10.50;99.90;;;;;;5106581;28;20534;-84
2024/02/24 11:38:19;;;;;;;3.10;0.80;;;10.90;99.90;;;;;;5100853;28;20492;-84
2024/02/24 11:40:47;;;;;;;1.67;0.80;;;10.60;99.90;;;;;;5104536;28;20452;-81
2024/02/24 11:43:15;;;;;;;2.63;0.80;;;9.70;99.90;;;;;;5091622;28;20995;-82
2024/02/24 11:45:45;;;;;;;1.83;0.90;;;9.30;99.90;;;;;;5093140;28;20455;-83
2024/02/24 11:48:14;;;;;;;3.13;0.87;;;10.20;99.90;;;;;;5093280;28;20450;-84
2024/02/24 11:50:41;;;;;;;3.20;1.00;;;10.20;99.90;;;;;;5093770;28;20558;-83
2024/02/24 11:53:08;;;;;;;2.90;1.00;;;11.10;99.90;;;;;;5088357;28;20531;-83
2024/02/24 11:55:35;;;;;;;4.33;1.20;;;11.20;99.90;;;;;;5085028;28;21172;-83
2024/02/24 11:58:03;;;;;;;1.90;1.20;;;11.70;99.90;;;;;;5091441;28;20530;-84
2024/02/24 12:00:31;;;;;;;3.50;0.90;;;12.80;99.90;;;;;;5092877;28;20458;-81
2024/02/24 12:02:57;;;;;;;1.83;0.80;;;15.10;99.90;;;;;;5093095;28;20464;-84
2024/02/24 12:05:25;;;;;;;2.10;1.40;;;16.10;99.30;;;;;;5087544;28;20450;-83
2024/02/24 12:07:53;;;;;;;1.80;0.67;;;18.20;96.00;;;;;;5085803;28;20876;-78
2024/02/24 12:10:20;;;;;;;4.83;1.00;;;19.60;93.30;;;;;;5084776;28;20997;-82
2024/02/24 12:12:47;;;;;;;2.00;0.80;;;20.30;90.40;;;;;;5083707;28;20467;-80
2024/02/24 12:15:15;;;;;;;3.50;0.80;;;18.90;81.80;;;;;;5087126;28;20446;-79
2024/02/24 12:17:43;;;;;;;2.57;1.20;;;18.60;82.80;;;;;;5083509;28;20519;-80
2024/02/24 12:20:10;;;;;;;2.57;0.80;;;19.50;78.60;;;;;;5082752;28;20459;-80
2024/02/24 12:22:42;;;;;;;1.80;0.73;;;18.40;77.00;;;;;;5084619;28;20463;-78
2024/02/24 12:25:14;;;;;;;1.50;0.63;;;16.60;71.40;;;;;;5085392;28;20462;-81
2024/02/24 12:27:42;;;;;;;1.60;0.60;;;14.30;86.80;;;;;;5090777;28;20533;-81
2024/02/24 12:30:10;;;;;;;3.60;0.97;;;12.90;74.10;;;;;;5086058;28;20486;-79
2024/02/24 12:32:37;;;;;;;2.37;0.77;;;12.70;76.90;;;;;;5083208;28;20468;-81
2024/02/24 12:35:05;;;;;;;1.57;0.70;;;12.70;80.10;;;;;;5085588;28;20815;-81
2024/02/24 12:37:33;;;;;;;1.93;0.70;;;13.10;80.80;;;;;;5095561;28;20514;-78
2024/02/24 12:40:05;;;;;;;4.67;2.53;;;15.40;81.30;;;;;;5089896;28;20813;-79
2024/02/24 12:42:38;;;;;;;6.40;1.63;;;14.20;75.00;;;;;;5097039;28;20470;-82
2024/02/24 12:45:07;;;;;;;2.00;1.63;;;15.80;74.60;;;;;;5097046;28;20542;-79
2024/02/24 12:47:36;;;;;;;2.10;0.90;;;16.70;75.00;;;;;;5083396;28;20478;-81
2024/02/24 12:50:06;;;;;;;1.57;0.80;;;17.80;73.90;;;;;;5083277;28;20462;-82
2024/02/24 12:52:33;;;;;;;2.13;0.77;;;16.40;71.40;;;;;;5096435;28;20998;-81
2024/02/24 12:55:00;;;;;;;2.17;0.70;;;15.50;73.90;;;;;;5085215;28;20544;-79
2024/02/24 12:57:28;;;;;;;2.17;0.80;;;15.50;74.00;;;;;;5090911;28;20460;-81